createdAt,value
2022-08-03T00:00:05.677Z,9.718923
2022-08-03T00:01:05.647Z,9.719024
2022-08-03T00:02:05.652Z,9.719172
2022-08-03T00:03:05.675Z,9.719224
2022-08-03T00:04:05.625Z,9.719257
2022-08-03T00:05:05.615Z,9.719288
2022-08-03T00:06:05.605Z,9.719310
2022-08-03T00:07:05.612Z,9.719274
2022-08-03T00:08:05.582Z,9.719282
2022-08-03T00:09:05.574Z,9.719260
2022-08-03T00:10:05.554Z,9.719054
2022-08-03T00:11:05.559Z,9.719139
2022-08-03T00:12:05.560Z,9.719221
2022-08-03T00:13:05.529Z,9.719234
2022-08-03T00:14:05.527Z,9.719191
2022-08-03T00:15:09.504Z,9.719221
2022-08-03T00:16:06.500Z,9.719250
2022-08-03T00:17:05.489Z,9.719207
2022-08-03T00:18:05.524Z,9.719197
2022-08-03T00:19:05.468Z,9.719170
2022-08-03T00:20:05.451Z,9.719080
2022-08-03T00:21:06.448Z,9.719033
2022-08-03T00:22:05.450Z,9.719079
2022-08-03T00:23:05.450Z,9.719057
2022-08-03T00:24:05.423Z,9.718995
2022-08-03T00:25:05.397Z,9.719185
2022-08-03T00:26:38.320Z,9.718959
2022-08-03T00:27:05.386Z,9.719120
2022-08-03T00:28:05.381Z,9.719110
2022-08-03T00:29:05.359Z,9.719276
2022-08-03T00:30:05.358Z,9.719263
2022-08-03T00:31:05.347Z,9.719191
2022-08-03T00:32:05.361Z,9.719106
2022-08-03T00:33:05.329Z,9.719228
2022-08-03T00:34:06.028Z,9.719025
2022-08-03T00:35:08.067Z,9.718966
2022-08-03T00:36:05.298Z,9.719049
2022-08-03T00:37:05.311Z,9.718969
2022-08-03T00:38:05.289Z,9.718938
2022-08-03T00:39:05.272Z,9.718997
2022-08-03T00:40:05.541Z,9.719047
2022-08-03T00:41:05.247Z,9.718989
2022-08-03T00:42:05.239Z,9.718847
2022-08-03T00:43:05.248Z,9.718997
2022-08-03T00:44:05.219Z,9.719223
2022-08-03T00:45:06.216Z,9.719185
2022-08-03T00:46:05.200Z,9.719254
2022-08-03T00:47:05.203Z,9.719097
2022-08-03T00:48:05.221Z,9.719098
2022-08-03T00:49:05.233Z,9.719274
2022-08-03T00:50:05.159Z,9.719258
2022-08-03T00:51:05.153Z,9.719255
2022-08-03T00:52:09.703Z,9.719191
2022-08-03T00:53:05.150Z,9.719254
2022-08-03T00:54:05.145Z,9.719246
2022-08-03T00:55:05.131Z,9.719289
2022-08-03T00:56:05.106Z,9.719254
2022-08-03T00:57:05.098Z,9.719228
2022-08-03T00:58:05.080Z,9.719267
2022-08-03T00:59:05.115Z,9.719260
2022-08-03T01:00:05.065Z,9.719238
2022-08-03T01:01:05.097Z,9.719282
2022-08-03T01:02:05.049Z,9.719269
2022-08-03T01:03:05.042Z,9.719226
2022-08-03T01:04:05.052Z,9.719199
2022-08-03T01:05:05.028Z,9.719288
2022-08-03T01:06:05.027Z,9.719315
2022-08-03T01:07:05.025Z,9.719271
2022-08-03T01:08:04.994Z,9.719278
2022-08-03T01:09:04.977Z,9.719226
2022-08-03T01:10:05.975Z,9.719237
2022-08-03T01:11:04.990Z,9.719264
2022-08-03T01:12:04.955Z,9.719285
2022-08-03T01:13:04.946Z,9.719322
2022-08-03T01:14:18.319Z,9.719311
2022-08-03T01:15:06.926Z,9.719234
2022-08-03T01:16:04.918Z,9.719288
2022-08-03T01:17:04.937Z,9.719173
2022-08-03T01:18:04.901Z,9.719237
2022-08-03T01:19:04.882Z,9.719308
2022-08-03T01:20:04.876Z,9.719332
2022-08-03T01:21:04.910Z,9.719349
2022-08-03T01:22:04.854Z,9.719306
2022-08-03T01:23:04.853Z,9.719184
2022-08-03T01:24:04.840Z,9.719275
2022-08-03T01:25:04.840Z,9.719237
2022-08-03T01:26:04.844Z,9.719291
2022-08-03T01:27:04.825Z,9.719246
2022-08-03T01:28:04.818Z,9.719257
2022-08-03T01:29:04.793Z,9.719315
2022-08-03T01:30:04.780Z,9.719271
2022-08-03T01:31:04.773Z,9.719193
2022-08-03T01:33:03.165Z,9.719203
2022-08-03T01:33:06.014Z,9.719221
2022-08-03T01:34:04.762Z,9.719168
2022-08-03T01:35:04.733Z,9.719195
2022-08-03T01:36:04.733Z,9.719267
2022-08-03T01:37:04.712Z,9.719274
2022-08-03T01:38:04.720Z,9.719254
2022-08-03T01:39:04.685Z,9.719217
2022-08-03T01:40:04.681Z,9.719228
2022-08-03T01:41:04.686Z,9.719249
2022-08-03T01:42:04.658Z,9.719250
2022-08-03T01:43:04.666Z,9.719241
2022-08-03T01:44:29.159Z,9.719255
2022-08-03T01:45:05.632Z,9.719247
2022-08-03T01:46:05.638Z,9.719179
2022-08-03T01:47:04.629Z,9.719164
2022-08-03T01:48:04.599Z,9.719130
2022-08-03T01:49:08.974Z,9.719205
2022-08-03T01:50:04.581Z,9.719190
2022-08-03T01:51:04.581Z,9.719215
2022-08-03T01:52:05.508Z,9.719196
2022-08-03T01:53:04.546Z,9.719258
2022-08-03T01:54:04.571Z,9.719275
2022-08-03T01:55:04.533Z,9.719161
2022-08-03T01:56:04.532Z,9.719169
2022-08-03T01:57:04.507Z,9.719228
2022-08-03T01:58:06.589Z,9.719195
2022-08-03T01:59:04.523Z,9.719098
2022-08-03T02:00:04.478Z,9.719216
2022-08-03T02:01:04.494Z,9.719132
2022-08-03T02:02:32.023Z,9.719273
2022-08-03T02:03:05.454Z,9.719384
2022-08-03T02:04:04.436Z,9.719287
2022-08-03T02:05:04.447Z,9.719397
2022-08-03T02:07:02.188Z,9.719228
2022-08-03T02:07:06.413Z,9.719174
2022-08-03T02:08:04.414Z,9.719152
2022-08-03T02:09:04.392Z,9.719105
2022-08-03T02:10:04.409Z,9.719014
2022-08-03T02:11:04.367Z,9.718969
2022-08-03T02:12:04.369Z,9.719220
2022-08-03T02:13:04.392Z,9.719208
2022-08-03T02:14:04.341Z,9.719299
2022-08-03T02:15:04.359Z,9.719190
2022-08-03T02:16:04.327Z,9.719043
2022-08-03T02:17:04.312Z,9.718828
2022-08-03T02:18:04.308Z,9.718936
2022-08-03T02:19:04.297Z,9.719105
2022-08-03T02:20:04.306Z,9.719106
2022-08-03T02:21:10.874Z,9.719003
2022-08-03T02:22:05.280Z,9.718884
2022-08-03T02:23:04.250Z,9.719300
2022-08-03T02:24:04.251Z,9.719219
2022-08-03T02:25:04.252Z,9.719154
2022-08-03T02:26:04.225Z,9.719090
2022-08-03T02:27:04.217Z,9.719111
2022-08-03T02:28:04.235Z,9.719069
2022-08-03T02:29:04.212Z,9.719197
2022-08-03T02:30:04.189Z,9.719295
2022-08-03T02:31:04.179Z,9.719247
2022-08-03T02:32:04.164Z,9.719415
2022-08-03T02:33:04.177Z,9.719234
2022-08-03T02:34:04.155Z,9.719051
2022-08-03T02:35:04.138Z,9.719053
2022-08-03T02:36:04.133Z,9.719168
2022-08-03T02:37:04.118Z,9.719188
2022-08-03T02:38:04.102Z,9.719122
2022-08-03T02:39:04.122Z,9.719142
2022-08-03T02:40:04.082Z,9.719101
2022-08-03T02:41:04.082Z,9.719242
2022-08-03T02:42:04.065Z,9.719214
2022-08-03T02:43:04.067Z,9.719042
2022-08-03T02:44:06.084Z,9.719144
2022-08-03T02:45:04.023Z,9.719063
2022-08-03T02:46:04.026Z,9.719225
2022-08-03T02:47:04.027Z,9.719244
2022-08-03T02:48:04.022Z,9.719227
2022-08-03T02:49:40.996Z,9.719231
2022-08-03T02:50:05.014Z,9.719096
2022-08-03T02:51:03.982Z,9.719105
2022-08-03T02:52:03.991Z,9.719155
2022-08-03T02:53:03.987Z,9.719156
2022-08-03T02:54:03.950Z,9.719045
2022-08-03T02:55:03.938Z,9.719130
2022-08-03T02:56:03.924Z,9.719356
2022-08-03T02:57:03.918Z,9.719399
2022-08-03T02:58:03.937Z,9.719341
2022-08-03T02:59:03.903Z,9.719412
2022-08-03T03:00:03.893Z,9.719331
2022-08-03T03:01:03.972Z,9.719208
2022-08-03T03:02:03.887Z,9.719161
2022-08-03T03:03:03.890Z,9.719307
2022-08-03T03:04:03.864Z,9.719285
2022-08-03T03:05:54.338Z,9.719302
2022-08-03T03:06:05.799Z,9.719274
2022-08-03T03:07:04.491Z,9.719249
2022-08-03T03:08:03.823Z,9.719240
2022-08-03T03:09:04.831Z,9.719320
2022-08-03T03:10:03.821Z,9.719382
2022-08-03T03:11:03.779Z,9.719387
2022-08-03T03:12:03.830Z,9.719348
2022-08-03T03:13:03.759Z,9.719351
2022-08-03T03:14:03.747Z,9.719333
2022-08-03T03:15:03.740Z,9.719438
2022-08-03T03:16:03.763Z,9.719350
2022-08-03T03:17:03.728Z,9.719298
2022-08-03T03:18:03.710Z,9.719219
2022-08-03T03:19:03.702Z,9.719341
2022-08-03T03:20:03.700Z,9.719356
2022-08-03T03:21:03.720Z,9.719317
2022-08-03T03:22:03.688Z,9.719378
2022-08-03T03:23:03.680Z,9.719441
2022-08-03T03:24:03.695Z,9.719431
2022-08-03T03:25:03.641Z,9.719343
2022-08-03T03:26:03.635Z,9.719198
2022-08-03T03:27:03.626Z,9.718696
2022-08-03T03:28:03.618Z,9.719355
2022-08-03T03:29:03.625Z,9.719430
2022-08-03T03:30:03.591Z,9.719535
2022-08-03T03:31:03.594Z,9.719338
2022-08-03T03:32:03.583Z,9.719424
2022-08-03T03:33:03.582Z,9.719407
2022-08-03T03:34:03.586Z,9.719485
2022-08-03T03:35:03.558Z,9.719417
2022-08-03T03:36:03.538Z,9.719515
2022-08-03T03:37:03.533Z,9.719509
2022-08-03T03:38:03.544Z,9.719590
2022-08-03T03:39:15.094Z,9.719687
2022-08-03T03:40:04.500Z,9.719289
2022-08-03T03:41:03.493Z,9.719403
2022-08-03T03:42:03.484Z,9.719460
2022-08-03T03:43:03.484Z,9.719479
2022-08-03T03:44:03.462Z,9.719617
2022-08-03T03:45:03.452Z,9.719702
2022-08-03T03:46:03.467Z,9.719254
2022-08-03T03:47:03.429Z,9.719156
2022-08-03T03:48:03.424Z,9.719538
2022-08-03T03:49:03.450Z,9.719584
2022-08-03T03:50:03.402Z,9.719662
2022-08-03T03:51:03.399Z,9.719663
2022-08-03T03:52:03.399Z,9.719620
2022-08-03T03:53:03.365Z,9.719570
2022-08-03T03:54:03.428Z,9.719566
2022-08-03T03:55:03.369Z,9.719548
2022-08-03T03:56:03.342Z,9.719374
2022-08-03T03:57:03.330Z,9.719354
2022-08-03T03:58:03.319Z,9.719371
2022-08-03T03:59:03.306Z,9.719449
2022-08-03T04:00:03.316Z,9.719414
2022-08-03T04:01:03.392Z,9.719373
2022-08-03T04:02:03.286Z,9.719370
2022-08-03T04:03:03.281Z,9.719456
2022-08-03T04:04:03.259Z,9.719315
2022-08-03T04:05:03.255Z,9.719418
2022-08-03T04:06:03.257Z,9.719300
2022-08-03T04:07:03.224Z,9.719372
2022-08-03T04:08:03.246Z,9.719377
2022-08-03T04:09:03.224Z,9.719371
2022-08-03T04:10:14.621Z,9.719291
2022-08-03T04:11:04.192Z,9.719307
2022-08-03T04:12:04.183Z,9.719352
2022-08-03T04:13:03.195Z,9.719396
2022-08-03T04:14:03.164Z,9.719408
2022-08-03T04:15:03.158Z,9.719391
2022-08-03T04:16:03.136Z,9.719332
2022-08-03T04:17:03.140Z,9.719307
2022-08-03T04:18:03.160Z,9.719349
2022-08-03T04:19:03.112Z,9.719331
2022-08-03T04:20:03.114Z,9.719321
2022-08-03T04:21:03.094Z,9.719357
2022-08-03T04:22:03.104Z,9.719382
2022-08-03T04:23:03.078Z,9.719318
2022-08-03T04:24:03.078Z,9.719309
2022-08-03T04:25:03.084Z,9.719324
2022-08-03T04:26:03.056Z,9.719319
2022-08-03T04:27:03.034Z,9.719248
2022-08-03T04:28:30.028Z,9.719250
2022-08-03T04:29:04.085Z,9.719233
2022-08-03T04:30:03.024Z,9.719288
2022-08-03T04:31:03.002Z,9.719263
2022-08-03T04:32:03.173Z,9.719330
2022-08-03T04:33:02.994Z,9.719406
2022-08-03T04:34:02.967Z,9.719244
2022-08-03T04:35:02.967Z,9.719305
2022-08-03T04:36:03.827Z,9.719315
2022-08-03T04:37:03.966Z,9.719214
2022-08-03T04:38:02.933Z,9.719290
2022-08-03T04:39:02.917Z,9.719318
2022-08-03T04:40:02.921Z,9.719366
2022-08-03T04:41:02.900Z,9.719233
2022-08-03T04:42:08.034Z,9.719200
2022-08-03T04:43:03.888Z,9.719172
2022-08-03T04:44:02.876Z,9.719115
2022-08-03T04:45:02.876Z,9.719094
2022-08-03T04:46:02.873Z,9.718923
2022-08-03T04:47:02.850Z,9.719269
2022-08-03T04:48:03.115Z,9.719139
2022-08-03T04:49:02.878Z,9.719276
2022-08-03T04:50:02.825Z,9.719125
2022-08-03T04:51:02.830Z,9.719322
2022-08-03T04:52:02.800Z,9.719268
2022-08-03T04:53:02.805Z,9.719378
2022-08-03T04:54:02.780Z,9.719322
2022-08-03T04:55:02.789Z,9.719174
2022-08-03T04:56:03.762Z,9.719193
2022-08-03T04:57:02.760Z,9.719089
2022-08-03T04:58:02.759Z,9.719084
2022-08-03T04:59:02.764Z,9.719134
2022-08-03T05:00:03.706Z,9.719216
2022-08-03T05:01:03.722Z,9.719206
2022-08-03T05:02:02.767Z,9.719339
2022-08-03T05:03:02.715Z,9.719272
2022-08-03T05:04:02.704Z,9.719289
2022-08-03T05:05:02.689Z,9.719279
2022-08-03T05:06:09.691Z,9.719287
2022-08-03T05:07:11.704Z,9.719257
2022-08-03T05:08:03.493Z,9.719275
2022-08-03T05:09:02.669Z,9.719277
2022-08-03T05:10:03.351Z,9.719198
2022-08-03T05:11:02.658Z,9.719235
2022-08-03T05:12:02.642Z,9.719204
2022-08-03T05:13:02.614Z,9.719279
2022-08-03T05:14:02.600Z,9.719339
2022-08-03T05:15:02.619Z,9.719278
2022-08-03T05:16:02.588Z,9.719268
2022-08-03T05:17:02.592Z,9.719144
2022-08-03T05:18:02.567Z,9.719230
2022-08-03T05:19:02.555Z,9.719258
2022-08-03T05:20:02.557Z,9.719286
2022-08-03T05:21:02.547Z,9.719290
2022-08-03T05:22:02.550Z,9.719258
2022-08-03T05:23:02.549Z,9.719268
2022-08-03T05:24:02.522Z,9.719254
2022-08-03T05:25:02.573Z,9.719264
2022-08-03T05:26:02.507Z,9.719262
2022-08-03T05:27:02.508Z,9.719288
2022-08-03T05:28:02.479Z,9.719270
2022-08-03T05:29:02.475Z,9.719306
2022-08-03T05:30:29.722Z,9.719290
2022-08-03T05:31:03.456Z,9.719295
2022-08-03T05:32:07.748Z,9.719286
2022-08-03T05:33:04.456Z,9.719143
2022-08-03T05:34:02.427Z,9.719252
2022-08-03T05:36:01.459Z,9.719250
2022-08-03T05:36:04.386Z,9.719221
2022-08-03T05:37:03.396Z,9.719294
2022-08-03T05:38:02.397Z,9.719352
2022-08-03T05:39:03.032Z,9.719406
2022-08-03T05:40:03.370Z,9.719440
2022-08-03T05:41:22.906Z,9.719424
2022-08-03T05:42:03.379Z,9.719438
2022-08-03T05:43:02.352Z,9.719418
2022-08-03T05:44:02.345Z,9.719399
2022-08-03T05:45:02.340Z,9.719402
2022-08-03T05:46:11.956Z,9.719311
2022-08-03T05:47:02.315Z,9.719390
2022-08-03T05:48:02.312Z,9.719440
2022-08-03T05:49:02.351Z,9.719505
2022-08-03T05:50:02.292Z,9.719478
2022-08-03T05:51:02.305Z,9.719507
2022-08-03T05:52:21.146Z,9.719480
2022-08-03T05:53:04.259Z,9.719526
2022-08-03T05:54:02.268Z,9.719505
2022-08-03T05:55:02.241Z,9.719489
2022-08-03T05:56:03.559Z,9.719470
2022-08-03T05:57:03.226Z,9.719459
2022-08-03T05:58:02.226Z,9.719464
2022-08-03T05:59:22.457Z,9.719480
2022-08-03T06:00:04.221Z,9.719513
2022-08-03T06:01:02.189Z,9.719481
2022-08-03T06:02:02.244Z,9.719465
2022-08-03T06:03:02.176Z,9.719426
2022-08-03T06:04:02.169Z,9.719451
2022-08-03T06:05:02.178Z,9.719446
2022-08-03T06:06:02.151Z,9.719439
2022-08-03T06:07:02.140Z,9.719429
2022-08-03T06:08:02.132Z,9.719281
2022-08-03T06:09:02.142Z,9.719246
2022-08-03T06:10:36.858Z,9.719398
2022-08-03T06:11:02.128Z,9.719373
2022-08-03T06:12:02.116Z,9.719394
2022-08-03T06:13:02.092Z,9.719163
2022-08-03T06:14:02.081Z,9.719313
2022-08-03T06:15:02.077Z,9.719451
2022-08-03T06:16:02.083Z,9.719464
2022-08-03T06:17:02.064Z,9.719203
2022-08-03T06:18:02.385Z,9.719166
2022-08-03T06:19:03.044Z,9.719166
2022-08-03T06:20:02.032Z,9.719166
2022-08-03T06:21:14.139Z,9.719166
2022-08-03T06:22:03.014Z,9.719689
2022-08-03T06:23:02.019Z,9.719689
2022-08-03T06:24:02.568Z,9.719689
2022-08-03T06:25:04.953Z,9.719689
2022-08-03T06:26:05.629Z,9.719689
2022-08-03T06:27:36.799Z,9.719335
2022-08-03T06:28:01.959Z,9.719335
2022-08-03T06:29:03.944Z,9.719335
2022-08-03T06:30:01.950Z,9.719168
2022-08-03T06:31:01.938Z,9.719199
2022-08-03T06:32:01.935Z,9.719235
2022-08-03T06:33:02.921Z,9.719176
2022-08-03T06:34:32.576Z,9.719214
2022-08-03T06:35:02.912Z,9.719089
2022-08-03T06:36:01.901Z,9.719228
2022-08-03T06:37:02.413Z,9.719217
2022-08-03T06:38:01.921Z,9.719174
2022-08-03T06:39:01.888Z,9.719247
2022-08-03T06:40:01.894Z,9.719188
2022-08-03T06:41:01.857Z,9.719172
2022-08-03T06:42:01.844Z,9.719302
2022-08-03T06:43:01.839Z,9.719253
2022-08-03T06:44:03.364Z,9.719296
2022-08-03T06:45:02.963Z,9.719245
2022-08-03T06:46:01.818Z,9.719189
2022-08-03T06:47:01.808Z,9.719238
2022-08-03T06:48:01.806Z,9.719264
2022-08-03T06:49:01.873Z,9.719341
2022-08-03T06:50:12.845Z,9.719213
2022-08-03T06:51:02.785Z,9.719225
2022-08-03T06:52:05.570Z,9.719158
2022-08-03T06:53:01.751Z,9.719221
2022-08-03T06:54:01.747Z,9.719015
2022-08-03T06:55:01.766Z,9.719122
2022-08-03T06:56:01.726Z,9.718919
2022-08-03T06:57:01.722Z,9.719119
2022-08-03T06:58:03.264Z,9.719152
2022-08-03T06:59:01.696Z,9.719177
2022-08-03T07:00:08.446Z,9.719041
2022-08-03T07:01:01.719Z,9.719119
2022-08-03T07:02:01.684Z,9.719220
2022-08-03T07:03:01.674Z,9.719241
2022-08-03T07:04:01.667Z,9.719295
2022-08-03T07:05:01.683Z,9.719249
2022-08-03T07:06:01.640Z,9.719267
2022-08-03T07:07:01.639Z,9.719259
2022-08-03T07:08:01.643Z,9.719285
2022-08-03T07:09:01.621Z,9.719125
2022-08-03T07:10:02.228Z,9.719368
2022-08-03T07:11:01.673Z,9.719236
2022-08-03T07:12:01.598Z,9.719136
2022-08-03T07:13:01.591Z,9.719221
2022-08-03T07:14:01.580Z,9.719259
2022-08-03T07:15:02.904Z,9.719349
2022-08-03T07:16:02.580Z,9.719277
2022-08-03T07:17:01.559Z,9.719213
2022-08-03T07:18:01.541Z,9.719172
2022-08-03T07:19:01.533Z,9.719098
2022-08-03T07:20:01.613Z,9.719163
2022-08-03T07:21:01.533Z,9.718893
2022-08-03T07:22:02.323Z,9.718890
2022-08-03T07:23:01.508Z,9.718871
2022-08-03T07:24:01.495Z,9.718925
2022-08-03T07:25:01.517Z,9.719102
2022-08-03T07:26:01.487Z,9.718931
2022-08-03T07:27:01.472Z,9.719015
2022-08-03T07:28:01.458Z,9.719096
2022-08-03T07:29:01.454Z,9.719030
2022-08-03T07:30:01.447Z,9.719120
2022-08-03T07:31:01.475Z,9.719240
2022-08-03T07:32:01.425Z,9.719186
2022-08-03T07:33:01.418Z,9.719159
2022-08-03T07:34:01.441Z,9.719162
2022-08-03T07:35:01.825Z,9.719069
2022-08-03T07:36:01.428Z,9.719055
2022-08-03T07:37:01.392Z,9.719110
2022-08-03T07:38:01.387Z,9.719074
2022-08-03T07:39:01.383Z,9.719070
2022-08-03T07:40:02.359Z,9.719067
2022-08-03T07:41:01.437Z,9.719069
2022-08-03T07:42:01.360Z,9.719152
2022-08-03T07:43:01.336Z,9.719155
2022-08-03T07:44:01.343Z,9.719137
2022-08-03T07:45:01.360Z,9.719208
2022-08-03T07:46:01.313Z,9.719155
2022-08-03T07:47:03.434Z,9.719135
2022-08-03T07:48:01.298Z,9.719162
2022-08-03T07:49:01.334Z,9.719192
2022-08-03T07:50:01.281Z,9.719188
2022-08-03T07:51:01.268Z,9.719153
2022-08-03T07:52:01.281Z,9.719144
2022-08-03T07:53:01.259Z,9.719157
2022-08-03T07:54:01.264Z,9.719183
2022-08-03T07:55:01.267Z,9.719195
2022-08-03T07:56:01.233Z,9.719202
2022-08-03T07:57:01.226Z,9.719182
2022-08-03T07:58:01.238Z,9.719222
2022-08-03T07:59:01.213Z,9.719190
2022-08-03T08:00:02.485Z,9.719225
2022-08-03T08:01:01.252Z,9.719169
2022-08-03T08:02:01.186Z,9.719229
2022-08-03T08:03:01.201Z,9.719198
2022-08-03T08:04:01.178Z,9.719272
2022-08-03T08:05:05.529Z,9.719270
2022-08-03T08:06:02.159Z,9.719255
2022-08-03T08:07:01.140Z,9.719193
2022-08-03T08:08:01.161Z,9.719197
2022-08-03T08:09:01.133Z,9.719226
2022-08-03T08:10:01.111Z,9.719265
2022-08-03T08:11:01.137Z,9.719181
2022-08-03T08:12:01.109Z,9.719210
2022-08-03T08:13:01.100Z,9.719211
2022-08-03T08:14:01.086Z,9.719176
2022-08-03T08:15:01.088Z,9.719140
2022-08-03T08:16:01.098Z,9.719189
2022-08-03T08:17:04.432Z,9.719182
2022-08-03T08:18:02.052Z,9.719210
2022-08-03T08:19:01.051Z,9.719088
2022-08-03T08:20:01.043Z,9.719057
2022-08-03T08:21:01.068Z,9.719137
2022-08-03T08:22:02.390Z,9.719178
2022-08-03T08:23:01.298Z,9.719208
2022-08-03T08:24:01.012Z,9.719223
2022-08-03T08:25:01.442Z,9.719075
2022-08-03T08:26:01.002Z,9.719216
2022-08-03T08:27:01.003Z,9.719221
2022-08-03T08:28:30.056Z,9.719314
2022-08-03T08:29:00.959Z,9.719199
2022-08-03T08:30:10.407Z,9.719243
2022-08-03T08:31:02.931Z,9.719285
2022-08-03T08:32:00.960Z,9.719281
2022-08-03T08:33:00.955Z,9.719122
2022-08-03T08:34:03.917Z,9.719016
2022-08-03T08:35:01.923Z,9.719118
2022-08-03T08:36:00.906Z,9.719148
2022-08-03T08:37:00.909Z,9.719145
2022-08-03T08:38:04.172Z,9.719191
2022-08-03T08:39:00.896Z,9.719144
2022-08-03T08:40:00.874Z,9.719152
2022-08-03T08:41:00.858Z,9.719158
2022-08-03T08:42:00.857Z,9.719186
2022-08-03T08:43:00.848Z,9.719344
2022-08-03T08:44:00.870Z,9.719276
2022-08-03T08:45:01.051Z,9.719208
2022-08-03T08:46:00.825Z,9.719240
2022-08-03T08:47:00.823Z,9.719338
2022-08-03T08:48:04.414Z,9.719408
2022-08-03T08:49:04.539Z,9.719259
2022-08-03T08:50:09.691Z,9.719291
2022-08-03T08:51:02.785Z,9.719371
2022-08-03T08:52:01.676Z,9.719341
2022-08-03T08:53:00.769Z,9.719392
2022-08-03T08:54:00.784Z,9.719292
2022-08-03T08:55:00.773Z,9.719147
2022-08-03T08:56:01.328Z,9.719223
2022-08-03T08:57:00.738Z,9.719406
2022-08-03T08:58:00.717Z,9.719237
2022-08-03T08:59:00.726Z,9.719157
2022-08-03T09:00:00.730Z,9.719137
2022-08-03T09:01:01.727Z,9.719134
2022-08-03T09:02:00.697Z,9.719162
2022-08-03T09:03:00.683Z,9.719184
2022-08-03T09:04:00.672Z,9.719196
2022-08-03T09:05:05.328Z,9.719185
2022-08-03T09:06:02.671Z,9.719153
2022-08-03T09:07:29.105Z,9.719100
2022-08-03T09:08:02.627Z,9.719162
2022-08-03T09:09:00.665Z,9.719152
2022-08-03T09:10:11.258Z,9.719156
2022-08-03T09:11:01.640Z,9.719170
2022-08-03T09:12:20.032Z,9.719149
2022-08-03T09:13:02.579Z,9.719097
2022-08-03T09:14:00.576Z,9.719157
2022-08-03T09:15:16.551Z,9.719238
2022-08-03T09:16:02.598Z,9.719291
2022-08-03T09:17:00.556Z,9.719349
2022-08-03T09:18:00.531Z,9.719264
2022-08-03T09:19:00.536Z,9.719232
2022-08-03T09:20:03.143Z,9.719097
2022-08-03T09:21:14.796Z,9.719128
2022-08-03T09:22:02.543Z,9.719289
2022-08-03T09:23:00.528Z,9.719520
2022-08-03T09:24:03.776Z,9.719531
2022-08-03T09:25:22.691Z,9.719321
2022-08-03T09:26:02.484Z,9.719341
2022-08-03T09:27:00.463Z,9.719148
2022-08-03T09:28:00.473Z,9.719099
2022-08-03T09:29:04.665Z,9.719228
2022-08-03T09:30:02.432Z,9.719355
2022-08-03T09:31:00.438Z,9.719447
2022-08-03T09:32:00.451Z,9.719412
2022-08-03T09:33:00.419Z,9.719553
2022-08-03T09:34:00.404Z,9.719288
2022-08-03T09:35:00.414Z,9.719357
2022-08-03T09:36:00.393Z,9.719211
2022-08-03T09:37:00.371Z,9.719557
2022-08-03T09:38:11.192Z,9.719421
2022-08-03T09:39:01.368Z,9.719421
2022-08-03T09:40:00.366Z,9.718596
2022-08-03T09:41:01.042Z,9.719147
2022-08-03T09:42:00.335Z,9.719682
2022-08-03T09:43:00.337Z,9.719350
2022-08-03T09:44:00.316Z,9.719298
2022-08-03T09:45:00.335Z,9.718760
2022-08-03T09:46:00.303Z,9.718956
2022-08-03T09:47:00.290Z,9.719198
2022-08-03T09:48:00.272Z,9.719319
2022-08-03T09:49:00.348Z,9.719102
2022-08-03T09:50:00.261Z,9.718985
2022-08-03T09:51:13.574Z,9.719365
2022-08-03T09:52:30.114Z,9.719149
2022-08-03T09:53:00.242Z,9.718866
2022-08-03T09:54:00.554Z,9.719138
2022-08-03T09:55:00.216Z,9.719158
2022-08-03T09:56:36.146Z,9.719107
2022-08-03T09:57:01.223Z,9.719136
2022-08-03T09:58:00.184Z,9.719200
2022-08-03T09:59:00.182Z,9.719033
2022-08-03T10:00:04.619Z,9.719040
2022-08-03T10:01:01.197Z,9.718851
2022-08-03T10:02:00.171Z,9.718938
2022-08-03T10:03:00.144Z,9.719141
2022-08-03T10:04:04.418Z,9.719171
2022-08-03T10:05:00.131Z,9.719320
2022-08-03T10:06:00.286Z,9.719254
2022-08-03T10:07:00.121Z,9.719372
2022-08-03T10:08:00.104Z,9.719499
2022-08-03T10:09:00.093Z,9.719441
2022-08-03T10:10:29.322Z,9.719158
2022-08-03T10:11:01.076Z,9.718943
2022-08-03T10:12:00.072Z,9.719355
2022-08-03T10:13:00.153Z,9.719242
2022-08-03T10:14:01.317Z,9.719417
2022-08-03T10:15:00.046Z,9.719398
2022-08-03T10:16:22.766Z,9.719131
2022-08-03T10:17:00.009Z,9.718932
2022-08-03T10:18:00.032Z,9.719064
2022-08-03T10:19:00.023Z,9.719198
2022-08-03T10:19:59.998Z,9.719772
2022-08-03T10:21:00.004Z,9.719430
2022-08-03T10:21:59.990Z,9.719229
2022-08-03T10:22:59.974Z,9.719419
2022-08-03T10:23:59.982Z,9.719139
2022-08-03T10:24:59.997Z,9.719375
2022-08-03T10:25:59.948Z,9.719377
2022-08-03T10:26:59.921Z,9.719349
2022-08-03T10:27:59.956Z,9.719343
2022-08-03T10:28:59.916Z,9.719230
2022-08-03T10:29:59.962Z,9.719335
2022-08-03T10:30:59.908Z,9.719348
2022-08-03T10:31:59.943Z,9.719214
2022-08-03T10:32:59.870Z,9.719362
2022-08-03T10:33:59.883Z,9.719314
2022-08-03T10:35:01.786Z,9.719353
2022-08-03T10:35:59.862Z,9.719353
2022-08-03T10:36:59.865Z,9.719228
2022-08-03T10:37:59.821Z,9.719122
2022-08-03T10:38:59.826Z,9.719155
2022-08-03T10:39:59.807Z,9.719197
2022-08-03T10:40:59.807Z,9.719357
2022-08-03T10:42:02.548Z,9.719253
2022-08-03T10:42:59.793Z,9.719007
2022-08-03T10:43:59.795Z,9.719078
2022-08-03T10:44:59.776Z,9.719425
2022-08-03T10:45:59.759Z,9.719155
2022-08-03T10:46:59.763Z,9.719106
2022-08-03T10:47:59.776Z,9.719131
2022-08-03T10:48:59.755Z,9.719262
2022-08-03T10:49:59.739Z,9.719111
2022-08-03T10:50:59.711Z,9.719218
2022-08-03T10:51:59.699Z,9.719023
2022-08-03T10:53:01.961Z,9.719201
2022-08-03T10:53:59.699Z,9.719283
2022-08-03T10:55:00.733Z,9.719168
2022-08-03T10:55:59.673Z,9.719378
2022-08-03T10:57:02.617Z,9.719295
2022-08-03T10:58:00.650Z,9.719341
2022-08-03T10:58:59.643Z,9.719110
2022-08-03T10:59:59.664Z,9.719075
2022-08-03T11:01:00.651Z,9.719226
2022-08-03T11:02:01.067Z,9.719182
2022-08-03T11:03:00.626Z,9.719155
2022-08-03T11:03:59.588Z,9.719090
2022-08-03T11:04:59.594Z,9.719119
2022-08-03T11:05:59.609Z,9.719177
2022-08-03T11:06:59.593Z,9.719196
2022-08-03T11:07:59.556Z,9.719208
2022-08-03T11:08:59.552Z,9.719177
2022-08-03T11:09:59.542Z,9.719184
2022-08-03T11:11:00.085Z,9.719193
2022-08-03T11:11:59.554Z,9.719206
2022-08-03T11:12:59.520Z,9.719049
2022-08-03T11:13:59.526Z,9.719012
2022-08-03T11:14:59.511Z,9.719064
2022-08-03T11:16:01.729Z,9.719081
2022-08-03T11:16:59.488Z,9.719097
2022-08-03T11:17:59.472Z,9.719137
2022-08-03T11:18:59.464Z,9.719176
2022-08-03T11:19:59.484Z,9.719162
2022-08-03T11:20:59.437Z,9.719093
2022-08-03T11:21:59.446Z,9.719187
2022-08-03T11:22:59.447Z,9.719154
2022-08-03T11:24:05.593Z,9.719121
2022-08-03T11:25:00.423Z,9.719191
2022-08-03T11:25:59.455Z,9.719253
2022-08-03T11:27:03.039Z,9.719336
2022-08-03T11:27:59.379Z,9.719308
2022-08-03T11:28:59.376Z,9.719170
2022-08-03T11:29:59.361Z,9.719331
2022-08-03T11:30:59.400Z,9.719349
2022-08-03T11:31:59.345Z,9.719202
2022-08-03T11:32:59.344Z,9.719215
2022-08-03T11:33:59.322Z,9.719267
2022-08-03T11:34:59.316Z,9.719234
2022-08-03T11:35:59.306Z,9.719202
2022-08-03T11:36:59.351Z,9.719152
2022-08-03T11:38:03.263Z,9.719229
2022-08-03T11:39:00.280Z,9.719275
2022-08-03T11:39:59.274Z,9.719260
2022-08-03T11:40:59.261Z,9.719205
2022-08-03T11:41:59.270Z,9.719195
2022-08-03T11:42:59.244Z,9.719398
2022-08-03T11:43:59.225Z,9.719501